GJONW EGHC-EGJJ
Flight info
| Callsign | GJONW |
|---|---|
| Flight time | 1h 2m |
| Altitude | 6000 |
| Route | LND DCT LIZAD N160 TUNIT |
| Aircraft | BT36/L-BDFGLORY/S |
Departure
| Time | 2026-05-04 19:46 |
|---|---|
| Airport | Land's End Airport (EGHC) |
Arrival
| Time | 2026-05-04 20:48 |
|---|---|
| Airport | Jersey Airport (EGJJ) |
| Time | Latitude | Longitude | Altitude | Speed | Heading |
|---|---|---|---|---|---|
| 2026-05-04 19:42 | 50.10210 | -5.66822 | 387 ft | 0 kts | 60° |
| 2026-05-04 19:43 | 50.10211 | -5.66820 | 387 ft | 1 kts | 39° |
| 2026-05-04 19:44 | 50.10208 | -5.66838 | 387 ft | 5 kts | 188° |
| 2026-05-04 19:44 | 50.10174 | -5.66854 | 387 ft | 7 kts | 222° |
| 2026-05-04 19:44 | 50.10109 | -5.66947 | 388 ft | 18 kts | 172° |
| 2026-05-04 19:44 | 50.09980 | -5.66864 | 388 ft | 15 kts | 147° |
| 2026-05-04 19:45 | 50.09961 | -5.66869 | 389 ft | 0 kts | 333° |
| 2026-05-04 19:45 | 50.09977 | -5.66880 | 389 ft | 23 kts | 337° |
| 2026-05-04 19:45 | 50.10399 | -5.67144 | 432 ft | 96 kts | 336° |
| 2026-05-04 19:45 | 50.11103 | -5.67543 | 676 ft | 121 kts | 2° |
| 2026-05-04 19:46 | 50.11805 | -5.66741 | 923 ft | 139 kts | 62° |
| 2026-05-04 19:46 | 50.12262 | -5.65377 | 1273 ft | 145 kts | 52° |
| 2026-05-04 19:46 | 50.12911 | -5.64157 | 1601 ft | 149 kts | 55° |
| 2026-05-04 19:46 | 50.13198 | -5.62610 | 1949 ft | 151 kts | 84° |
| 2026-05-04 19:47 | 50.12975 | -5.61008 | 2306 ft | 155 kts | 112° |
| 2026-05-04 19:47 | 50.12507 | -5.59492 | 2668 ft | 155 kts | 111° |
| 2026-05-04 19:47 | 50.12073 | -5.57947 | 3026 ft | 155 kts | 110° |
| 2026-05-04 19:47 | 50.11650 | -5.56398 | 3385 ft | 156 kts | 110° |
| 2026-05-04 19:48 | 50.11228 | -5.54846 | 3736 ft | 156 kts | 110° |
| 2026-05-04 19:48 | 50.10804 | -5.53284 | 4086 ft | 156 kts | 110° |
| 2026-05-04 19:48 | 50.10385 | -5.51746 | 4440 ft | 156 kts | 110° |
| 2026-05-04 19:48 | 50.09962 | -5.50189 | 4812 ft | 156 kts | 111° |
| 2026-05-04 19:49 | 50.09540 | -5.48639 | 5167 ft | 155 kts | 111° |
| 2026-05-04 19:49 | 50.09119 | -5.47097 | 5524 ft | 154 kts | 111° |
| 2026-05-04 19:49 | 50.08698 | -5.45555 | 5884 ft | 154 kts | 111° |
| 2026-05-04 19:49 | 50.08264 | -5.43958 | 5998 ft | 169 kts | 112° |
| 2026-05-04 19:50 | 50.07788 | -5.42224 | 6007 ft | 179 kts | 112° |
| 2026-05-04 19:50 | 50.07290 | -5.40400 | 6008 ft | 186 kts | 112° |
| 2026-05-04 19:50 | 50.06784 | -5.38549 | 6006 ft | 185 kts | 112° |
| 2026-05-04 19:50 | 50.06283 | -5.36724 | 6002 ft | 182 kts | 112° |
| 2026-05-04 19:51 | 50.05789 | -5.34916 | 6001 ft | 181 kts | 112° |
| 2026-05-04 19:51 | 50.05298 | -5.33123 | 6001 ft | 180 kts | 112° |
| 2026-05-04 19:51 | 50.04808 | -5.31338 | 5999 ft | 179 kts | 112° |
| 2026-05-04 19:51 | 50.04318 | -5.29550 | 6000 ft | 179 kts | 112° |
| 2026-05-04 19:52 | 50.03835 | -5.27790 | 6000 ft | 179 kts | 112° |
| 2026-05-04 19:52 | 50.03346 | -5.26014 | 5996 ft | 178 kts | 112° |
| 2026-05-04 19:52 | 50.02858 | -5.24239 | 6002 ft | 179 kts | 112° |
| 2026-05-04 19:52 | 50.02369 | -5.22465 | 5996 ft | 179 kts | 112° |
| 2026-05-04 19:53 | 50.01878 | -5.20683 | 6002 ft | 179 kts | 112° |
| 2026-05-04 19:53 | 50.01385 | -5.18893 | 6000 ft | 179 kts | 112° |
| 2026-05-04 19:53 | 50.00891 | -5.17106 | 5998 ft | 180 kts | 112° |
| 2026-05-04 19:53 | 50.00398 | -5.15321 | 5996 ft | 180 kts | 112° |
| 2026-05-04 19:54 | 49.99905 | -5.13533 | 6007 ft | 180 kts | 112° |
| 2026-05-04 19:54 | 49.99412 | -5.11751 | 6004 ft | 180 kts | 112° |
| 2026-05-04 19:54 | 49.98923 | -5.09986 | 6002 ft | 179 kts | 112° |
| 2026-05-04 19:54 | 49.98429 | -5.08203 | 6003 ft | 179 kts | 112° |
| 2026-05-04 19:55 | 49.97934 | -5.06419 | 5999 ft | 179 kts | 112° |
| 2026-05-04 19:55 | 49.97441 | -5.04639 | 6005 ft | 179 kts | 112° |
| 2026-05-04 19:55 | 49.96946 | -5.02859 | 6004 ft | 179 kts | 112° |
| 2026-05-04 19:55 | 49.96452 | -5.01079 | 5998 ft | 179 kts | 112° |
| 2026-05-04 19:56 | 49.95957 | -4.99300 | 6001 ft | 179 kts | 112° |
| 2026-05-04 19:56 | 49.95464 | -4.97525 | 5998 ft | 179 kts | 112° |
| 2026-05-04 19:56 | 49.94781 | -4.95918 | 5987 ft | 182 kts | 140° |
| 2026-05-04 19:56 | 49.93583 | -4.95347 | 5986 ft | 187 kts | 181° |
| 2026-05-04 19:57 | 49.92412 | -4.96118 | 5986 ft | 191 kts | 221° |
| 2026-05-04 19:57 | 49.91604 | -4.97770 | 5995 ft | 193 kts | 236° |
| 2026-05-04 19:57 | 49.90876 | -4.99515 | 6003 ft | 193 kts | 236° |
| 2026-05-04 19:57 | 49.90179 | -5.01290 | 5997 ft | 193 kts | 245° |
| 2026-05-04 19:58 | 49.90080 | -5.03337 | 5989 ft | 193 kts | 286° |
| 2026-05-04 19:58 | 49.90829 | -5.05000 | 5985 ft | 190 kts | 327° |
| 2026-05-04 19:58 | 49.92059 | -5.05527 | 5992 ft | 184 kts | 7° |
| 2026-05-04 19:58 | 49.93176 | -5.04708 | 5988 ft | 179 kts | 48° |
| 2026-05-04 19:59 | 49.93646 | -5.02978 | 5989 ft | 177 kts | 88° |
| 2026-05-04 19:59 | 49.93259 | -5.01186 | 5997 ft | 179 kts | 123° |
| 2026-05-04 19:59 | 49.92521 | -4.99655 | 6008 ft | 180 kts | 126° |
| 2026-05-04 19:59 | 49.91755 | -4.98120 | 6003 ft | 180 kts | 126° |
| 2026-05-04 20:00 | 49.91032 | -4.96529 | 6001 ft | 180 kts | 120° |
| 2026-05-04 20:00 | 49.90463 | -4.94809 | 6001 ft | 179 kts | 109° |
| 2026-05-04 20:00 | 49.90033 | -4.92997 | 6002 ft | 179 kts | 110° |
| 2026-05-04 20:00 | 49.89578 | -4.91200 | 6006 ft | 179 kts | 110° |
| 2026-05-04 20:01 | 49.89119 | -4.89399 | 6004 ft | 179 kts | 110° |
| 2026-05-04 20:01 | 49.88643 | -4.87613 | 6005 ft | 179 kts | 112° |
| 2026-05-04 20:01 | 49.88144 | -4.85835 | 5999 ft | 180 kts | 112° |
| 2026-05-04 20:01 | 49.87645 | -4.84060 | 6001 ft | 180 kts | 112° |
| 2026-05-04 20:02 | 49.87151 | -4.82309 | 5999 ft | 180 kts | 112° |
| 2026-05-04 20:02 | 49.86650 | -4.80534 | 6003 ft | 180 kts | 112° |
| 2026-05-04 20:02 | 49.86145 | -4.78752 | 6000 ft | 180 kts | 114° |
| 2026-05-04 20:02 | 49.85464 | -4.77115 | 6009 ft | 181 kts | 125° |
| 2026-05-04 20:03 | 49.84707 | -4.75551 | 6000 ft | 181 kts | 126° |
| 2026-05-04 20:03 | 49.83956 | -4.73982 | 6006 ft | 181 kts | 124° |
| 2026-05-04 20:03 | 49.83215 | -4.72403 | 6005 ft | 181 kts | 124° |
| 2026-05-04 20:03 | 49.82474 | -4.70819 | 6012 ft | 181 kts | 124° |
| 2026-05-04 20:04 | 49.81734 | -4.69235 | 6001 ft | 181 kts | 124° |
| 2026-05-04 20:04 | 49.80993 | -4.67650 | 6001 ft | 181 kts | 124° |
| 2026-05-04 20:04 | 49.80254 | -4.66074 | 6000 ft | 181 kts | 124° |
| 2026-05-04 20:04 | 49.79514 | -4.64496 | 6000 ft | 181 kts | 124° |
| 2026-05-04 20:05 | 49.78772 | -4.62916 | 6004 ft | 181 kts | 124° |
| 2026-05-04 20:05 | 49.78032 | -4.61344 | 6000 ft | 181 kts | 124° |
| 2026-05-04 20:05 | 49.77298 | -4.59785 | 6000 ft | 181 kts | 124° |
| 2026-05-04 20:05 | 49.76558 | -4.58213 | 6000 ft | 181 kts | 124° |
| 2026-05-04 20:06 | 49.75816 | -4.56639 | 5997 ft | 181 kts | 124° |
| 2026-05-04 20:06 | 49.75076 | -4.55065 | 5997 ft | 181 kts | 124° |
| 2026-05-04 20:06 | 49.74335 | -4.53489 | 5997 ft | 181 kts | 124° |
| 2026-05-04 20:06 | 49.73593 | -4.51909 | 6003 ft | 181 kts | 124° |
| 2026-05-04 20:07 | 49.72846 | -4.50336 | 6002 ft | 181 kts | 124° |
| 2026-05-04 20:07 | 49.72093 | -4.48762 | 5997 ft | 182 kts | 124° |
| 2026-05-04 20:07 | 49.71341 | -4.47194 | 5997 ft | 182 kts | 124° |
| 2026-05-04 20:07 | 49.70598 | -4.45643 | 5997 ft | 182 kts | 124° |
| 2026-05-04 20:08 | 49.69834 | -4.44051 | 5997 ft | 182 kts | 124° |
| 2026-05-04 20:08 | 49.69188 | -4.42412 | 6001 ft | 181 kts | 117° |
| 2026-05-04 20:08 | 49.68587 | -4.40701 | 6003 ft | 181 kts | 116° |
| 2026-05-04 20:08 | 49.67990 | -4.38991 | 5999 ft | 181 kts | 116° |
| 2026-05-04 20:09 | 49.67392 | -4.37277 | 6001 ft | 181 kts | 116° |
| 2026-05-04 20:09 | 49.66796 | -4.35567 | 6001 ft | 181 kts | 116° |
| 2026-05-04 20:09 | 49.66198 | -4.33850 | 6000 ft | 181 kts | 117° |
| 2026-05-04 20:09 | 49.65604 | -4.32122 | 6011 ft | 182 kts | 116° |
| 2026-05-04 20:10 | 49.65011 | -4.30386 | 6004 ft | 183 kts | 116° |
| 2026-05-04 20:10 | 49.64416 | -4.28652 | 6008 ft | 183 kts | 116° |
| 2026-05-04 20:10 | 49.63821 | -4.26918 | 6000 ft | 183 kts | 117° |
| 2026-05-04 20:10 | 49.63133 | -4.25260 | 6006 ft | 183 kts | 123° |
| 2026-05-04 20:11 | 49.62413 | -4.23665 | 6000 ft | 183 kts | 123° |
| 2026-05-04 20:11 | 49.61682 | -4.22052 | 6009 ft | 184 kts | 123° |
| 2026-05-04 20:11 | 49.60949 | -4.20438 | 6003 ft | 183 kts | 123° |
| 2026-05-04 20:11 | 49.60217 | -4.18829 | 6005 ft | 183 kts | 123° |
| 2026-05-04 20:12 | 49.59484 | -4.17215 | 6003 ft | 184 kts | 123° |
| 2026-05-04 20:12 | 49.58753 | -4.15604 | 5998 ft | 183 kts | 123° |
| 2026-05-04 20:12 | 49.58021 | -4.13991 | 5997 ft | 183 kts | 123° |
| 2026-05-04 20:12 | 49.57288 | -4.12383 | 5997 ft | 183 kts | 123° |
| 2026-05-04 20:13 | 49.56556 | -4.10777 | 5995 ft | 183 kts | 124° |
| 2026-05-04 20:13 | 49.55823 | -4.09164 | 5997 ft | 184 kts | 123° |
| 2026-05-04 20:13 | 49.55091 | -4.07551 | 5997 ft | 184 kts | 124° |
| 2026-05-04 20:13 | 49.54604 | -4.06482 | 5995 ft | 184 kts | 123° |
| 2026-05-04 20:14 | 49.53622 | -4.04326 | 6002 ft | 184 kts | 123° |
| 2026-05-04 20:14 | 49.52888 | -4.02714 | 5999 ft | 184 kts | 123° |
| 2026-05-04 20:14 | 49.52151 | -4.01108 | 6001 ft | 184 kts | 124° |
| 2026-05-04 20:14 | 49.51424 | -3.99522 | 5999 ft | 185 kts | 123° |
| 2026-05-04 20:15 | 49.50675 | -3.97873 | 6010 ft | 190 kts | 123° |
| 2026-05-04 20:15 | 49.49913 | -3.96195 | 6008 ft | 192 kts | 124° |
| 2026-05-04 20:15 | 49.49145 | -3.94500 | 6009 ft | 193 kts | 123° |
| 2026-05-04 20:15 | 49.48374 | -3.92798 | 6007 ft | 194 kts | 123° |
| 2026-05-04 20:16 | 49.47601 | -3.91088 | 6008 ft | 195 kts | 123° |
| 2026-05-04 20:16 | 49.47087 | -3.89957 | 6007 ft | 195 kts | 124° |
| 2026-05-04 20:16 | 49.46313 | -3.88251 | 6007 ft | 195 kts | 123° |
| 2026-05-04 20:16 | 49.45276 | -3.85979 | 6007 ft | 195 kts | 123° |
| 2026-05-04 20:17 | 49.44494 | -3.84272 | 6003 ft | 195 kts | 124° |
| 2026-05-04 20:17 | 49.43975 | -3.83133 | 6012 ft | 195 kts | 124° |
| 2026-05-04 20:17 | 49.43194 | -3.81415 | 6004 ft | 196 kts | 123° |
| 2026-05-04 20:17 | 49.42415 | -3.79701 | 6004 ft | 196 kts | 124° |
| 2026-05-04 20:18 | 49.41636 | -3.77973 | 6004 ft | 196 kts | 123° |
| 2026-05-04 20:18 | 49.40858 | -3.76253 | 6004 ft | 196 kts | 123° |
| 2026-05-04 20:18 | 49.40078 | -3.74539 | 5998 ft | 196 kts | 124° |
| 2026-05-04 20:18 | 49.39299 | -3.72821 | 5999 ft | 196 kts | 123° |
| 2026-05-04 20:19 | 49.38519 | -3.71112 | 6001 ft | 196 kts | 124° |
| 2026-05-04 20:19 | 49.37735 | -3.69404 | 5999 ft | 195 kts | 124° |
| 2026-05-04 20:19 | 49.36954 | -3.67694 | 5998 ft | 196 kts | 123° |
| 2026-05-04 20:19 | 49.36183 | -3.66006 | 5998 ft | 195 kts | 124° |
| 2026-05-04 20:20 | 49.35390 | -3.64267 | 5829 ft | 203 kts | 124° |
| 2026-05-04 20:20 | 49.34577 | -3.62464 | 5628 ft | 207 kts | 123° |
| 2026-05-04 20:20 | 49.33753 | -3.60639 | 5428 ft | 209 kts | 123° |
| 2026-05-04 20:20 | 49.32918 | -3.58805 | 5228 ft | 209 kts | 123° |
| 2026-05-04 20:21 | 49.32085 | -3.56969 | 5032 ft | 210 kts | 123° |
| 2026-05-04 20:21 | 49.31246 | -3.55140 | 4832 ft | 210 kts | 124° |
| 2026-05-04 20:21 | 49.29589 | -3.51528 | 4415 ft | 200 kts | 124° |
| 2026-05-04 20:22 | 49.28823 | -3.49890 | 4192 ft | 180 kts | 124° |
| 2026-05-04 20:22 | 49.28106 | -3.48341 | 3976 ft | 177 kts | 124° |
| 2026-05-04 20:22 | 49.27400 | -3.46818 | 3766 ft | 174 kts | 124° |
| 2026-05-04 20:22 | 49.26700 | -3.45314 | 3556 ft | 173 kts | 124° |
| 2026-05-04 20:23 | 49.26012 | -3.43842 | 3357 ft | 172 kts | 124° |
| 2026-05-04 20:23 | 49.25319 | -3.42357 | 3155 ft | 171 kts | 124° |
| 2026-05-04 20:23 | 49.24627 | -3.40891 | 2999 ft | 165 kts | 124° |
| 2026-05-04 20:23 | 49.23983 | -3.39549 | 2986 ft | 149 kts | 124° |
| 2026-05-04 20:24 | 49.23396 | -3.38314 | 2985 ft | 138 kts | 123° |
| 2026-05-04 20:24 | 49.22840 | -3.37163 | 2985 ft | 131 kts | 124° |
| 2026-05-04 20:24 | 49.22308 | -3.36068 | 2983 ft | 126 kts | 124° |
| 2026-05-04 20:24 | 49.21800 | -3.35006 | 2983 ft | 122 kts | 124° |
| 2026-05-04 20:25 | 49.21302 | -3.33974 | 2986 ft | 119 kts | 123° |
| 2026-05-04 20:25 | 49.20798 | -3.32945 | 2872 ft | 126 kts | 124° |
| 2026-05-04 20:25 | 49.20252 | -3.31822 | 2686 ft | 136 kts | 124° |
| 2026-05-04 20:25 | 49.19674 | -3.30633 | 2498 ft | 142 kts | 124° |
| 2026-05-04 20:26 | 49.19081 | -3.29411 | 2302 ft | 144 kts | 124° |
| 2026-05-04 20:26 | 49.18479 | -3.28179 | 2109 ft | 145 kts | 124° |
| 2026-05-04 20:26 | 49.17882 | -3.26936 | 2000 ft | 142 kts | 124° |
| 2026-05-04 20:26 | 49.17316 | -3.25764 | 1994 ft | 133 kts | 124° |
| 2026-05-04 20:27 | 49.16779 | -3.24646 | 1983 ft | 127 kts | 124° |
| 2026-05-04 20:27 | 49.16269 | -3.23590 | 1983 ft | 122 kts | 124° |
| 2026-05-04 20:27 | 49.15770 | -3.22557 | 1983 ft | 120 kts | 124° |
| 2026-05-04 20:27 | 49.15276 | -3.21553 | 1984 ft | 117 kts | 124° |
| 2026-05-04 20:28 | 49.14877 | -3.20512 | 1985 ft | 111 kts | 95° |
| 2026-05-04 20:28 | 49.14877 | -3.19352 | 1988 ft | 108 kts | 88° |
| 2026-05-04 20:28 | 49.14866 | -3.18215 | 1986 ft | 107 kts | 88° |
| 2026-05-04 20:28 | 49.14859 | -3.17085 | 1985 ft | 106 kts | 88° |
| 2026-05-04 20:29 | 49.14856 | -3.15957 | 1987 ft | 106 kts | 88° |
| 2026-05-04 20:29 | 49.14855 | -3.14821 | 1987 ft | 107 kts | 88° |
| 2026-05-04 20:29 | 49.14852 | -3.13679 | 1992 ft | 110 kts | 88° |
| 2026-05-04 20:29 | 49.14850 | -3.12482 | 2005 ft | 115 kts | 88° |
| 2026-05-04 20:30 | 49.14844 | -3.11234 | 2004 ft | 119 kts | 88° |
| 2026-05-04 20:30 | 49.14842 | -3.09944 | 2003 ft | 123 kts | 88° |
| 2026-05-04 20:30 | 49.14843 | -3.08644 | 2005 ft | 125 kts | 88° |
| 2026-05-04 20:30 | 49.14848 | -3.07313 | 2004 ft | 126 kts | 88° |
| 2026-05-04 20:31 | 49.14846 | -3.05966 | 2001 ft | 128 kts | 88° |
| 2026-05-04 20:31 | 49.14848 | -3.04608 | 2004 ft | 128 kts | 88° |
| 2026-05-04 20:31 | 49.14845 | -3.03251 | 2001 ft | 128 kts | 88° |
| 2026-05-04 20:31 | 49.14846 | -3.01893 | 2003 ft | 128 kts | 88° |
| 2026-05-04 20:32 | 49.14892 | -3.00541 | 2001 ft | 127 kts | 84° |
| 2026-05-04 20:32 | 49.14962 | -2.99188 | 2003 ft | 128 kts | 84° |
| 2026-05-04 20:32 | 49.15029 | -2.97829 | 2001 ft | 129 kts | 84° |
| 2026-05-04 20:32 | 49.15095 | -2.96482 | 2004 ft | 129 kts | 84° |
| 2026-05-04 20:33 | 49.15162 | -2.95117 | 2001 ft | 129 kts | 84° |
| 2026-05-04 20:33 | 49.15230 | -2.93751 | 2002 ft | 129 kts | 84° |
| 2026-05-04 20:33 | 49.15303 | -2.92384 | 2001 ft | 129 kts | 84° |
| 2026-05-04 20:33 | 49.15372 | -2.91023 | 2001 ft | 128 kts | 84° |
| 2026-05-04 20:34 | 49.15437 | -2.89674 | 2000 ft | 127 kts | 84° |
| 2026-05-04 20:34 | 49.15495 | -2.88330 | 1997 ft | 126 kts | 84° |
| 2026-05-04 20:34 | 49.15561 | -2.86990 | 1996 ft | 126 kts | 84° |
| 2026-05-04 20:34 | 49.15627 | -2.85652 | 1994 ft | 126 kts | 84° |
| 2026-05-04 20:35 | 49.15692 | -2.84327 | 1996 ft | 127 kts | 84° |
| 2026-05-04 20:35 | 49.15757 | -2.82971 | 1996 ft | 128 kts | 84° |
| 2026-05-04 20:35 | 49.15821 | -2.81612 | 1994 ft | 128 kts | 84° |
| 2026-05-04 20:35 | 49.15895 | -2.80250 | 1995 ft | 128 kts | 82° |
| 2026-05-04 20:36 | 49.16026 | -2.78906 | 1994 ft | 128 kts | 79° |
| 2026-05-04 20:36 | 49.16133 | -2.77573 | 1993 ft | 128 kts | 82° |
| 2026-05-04 20:36 | 49.16224 | -2.76202 | 1992 ft | 128 kts | 83° |
| 2026-05-04 20:36 | 49.16305 | -2.74856 | 1991 ft | 126 kts | 83° |
| 2026-05-04 20:37 | 49.16380 | -2.73516 | 1993 ft | 127 kts | 83° |
| 2026-05-04 20:37 | 49.16459 | -2.72197 | 1993 ft | 127 kts | 83° |
| 2026-05-04 20:37 | 49.16541 | -2.70820 | 1989 ft | 128 kts | 83° |
| 2026-05-04 20:37 | 49.16626 | -2.69473 | 1989 ft | 127 kts | 83° |
| 2026-05-04 20:38 | 49.16707 | -2.68131 | 1986 ft | 127 kts | 83° |
| 2026-05-04 20:38 | 49.16788 | -2.66789 | 1986 ft | 127 kts | 83° |
| 2026-05-04 20:38 | 49.16866 | -2.65447 | 1984 ft | 127 kts | 83° |
| 2026-05-04 20:38 | 49.16945 | -2.64131 | 1988 ft | 126 kts | 83° |
| 2026-05-04 20:39 | 49.17047 | -2.62789 | 1990 ft | 126 kts | 81° |
| 2026-05-04 20:39 | 49.17150 | -2.61477 | 1988 ft | 126 kts | 81° |
| 2026-05-04 20:39 | 49.17253 | -2.60147 | 1988 ft | 126 kts | 81° |
| 2026-05-04 20:39 | 49.17349 | -2.58822 | 1987 ft | 125 kts | 81° |
| 2026-05-04 20:40 | 49.17449 | -2.57494 | 1988 ft | 126 kts | 81° |
| 2026-05-04 20:40 | 49.17555 | -2.56152 | 1987 ft | 128 kts | 82° |
| 2026-05-04 20:40 | 49.17670 | -2.54806 | 1988 ft | 128 kts | 81° |
| 2026-05-04 20:40 | 49.17779 | -2.53460 | 1985 ft | 128 kts | 81° |
| 2026-05-04 20:41 | 49.17885 | -2.52125 | 1984 ft | 128 kts | 82° |
| 2026-05-04 20:41 | 49.17993 | -2.50772 | 1982 ft | 128 kts | 81° |
| 2026-05-04 20:41 | 49.18104 | -2.49382 | 1868 ft | 135 kts | 81° |
| 2026-05-04 20:41 | 49.18269 | -2.47954 | 1748 ft | 138 kts | 77° |
| 2026-05-04 20:42 | 49.18468 | -2.46506 | 1624 ft | 140 kts | 75° |
| 2026-05-04 20:42 | 49.18695 | -2.45055 | 1498 ft | 141 kts | 77° |
| 2026-05-04 20:42 | 49.18857 | -2.43599 | 1479 ft | 136 kts | 79° |
| 2026-05-04 20:42 | 49.18983 | -2.42185 | 1474 ft | 133 kts | 81° |
| 2026-05-04 20:43 | 49.19109 | -2.40788 | 1466 ft | 131 kts | 80° |
| 2026-05-04 20:43 | 49.19209 | -2.39550 | 1453 ft | 102 kts | 81° |
| 2026-05-04 20:43 | 49.19293 | -2.38511 | 1455 ft | 94 kts | 81° |
| 2026-05-04 20:43 | 49.19361 | -2.37550 | 1457 ft | 87 kts | 80° |
| 2026-05-04 20:44 | 49.19405 | -2.36701 | 1459 ft | 77 kts | 79° |
| 2026-05-04 20:44 | 49.19446 | -2.35920 | 1461 ft | 73 kts | 79° |
| 2026-05-04 20:44 | 49.19521 | -2.35047 | 1489 ft | 92 kts | 80° |
| 2026-05-04 20:44 | 49.19597 | -2.34012 | 1492 ft | 97 kts | 80° |
| 2026-05-04 20:45 | 49.19664 | -2.33013 | 1447 ft | 95 kts | 80° |
| 2026-05-04 20:45 | 49.19740 | -2.31990 | 1337 ft | 98 kts | 80° |
| 2026-05-04 20:45 | 49.19817 | -2.30942 | 1220 ft | 100 kts | 80° |
| 2026-05-04 20:45 | 49.19930 | -2.29883 | 1098 ft | 101 kts | 77° |
| 2026-05-04 20:46 | 49.20028 | -2.28812 | 983 ft | 102 kts | 80° |
| 2026-05-04 20:46 | 49.20125 | -2.27774 | 971 ft | 96 kts | 79° |
| 2026-05-04 20:46 | 49.20215 | -2.26745 | 972 ft | 99 kts | 79° |
| 2026-05-04 20:46 | 49.20318 | -2.25714 | 937 ft | 101 kts | 76° |
| 2026-05-04 20:47 | 49.20417 | -2.24647 | 820 ft | 100 kts | 82° |
| 2026-05-04 20:47 | 49.20480 | -2.23596 | 684 ft | 99 kts | 79° |
| 2026-05-04 20:47 | 49.20561 | -2.22570 | 540 ft | 95 kts | 81° |
| 2026-05-04 20:47 | 49.20625 | -2.21600 | 416 ft | 88 kts | 78° |
| 2026-05-04 20:48 | 49.20700 | -2.20727 | 297 ft | 74 kts | 81° |
| 2026-05-04 20:48 | 49.20756 | -2.20050 | 278 ft | 61 kts | 81° |
| 2026-05-04 20:48 | 49.20748 | -2.19595 | 279 ft | 21 kts | 174° |
| 2026-05-04 20:48 | 49.20696 | -2.19563 | 278 ft | 4 kts | 86° |
| 2026-05-04 20:49 | 49.20704 | -2.19448 | 278 ft | 14 kts | 90° |
| 2026-05-04 20:49 | 49.20697 | -2.19288 | 278 ft | 21 kts | 104° |
| 2026-05-04 20:49 | 49.20695 | -2.19011 | 278 ft | 28 kts | 82° |
| 2026-05-04 20:49 | 49.20714 | -2.18752 | 278 ft | 22 kts | 82° |
| 2026-05-04 20:50 | 49.20732 | -2.18524 | 278 ft | 24 kts | 81° |
| 2026-05-04 20:50 | 49.20682 | -2.18433 | 278 ft | 11 kts | 129° |
| 2026-05-04 20:50 | 49.20663 | -2.18368 | 278 ft | 3 kts | 41° |
| 2026-05-04 20:50 | 49.20669 | -2.18366 | 278 ft | 0 kts | 1° |